Coleharbor, North Dakota
Current Conditions -  °F | °C
As of 10:55 AM on Monday 22 Dec 2014 (Local Time) from KHZE Reporting Station
Haze Haze  
Wind Chill: 22°   Ceiling: 300
Heat Index: 28°   Visibility: 1.2mi
Dew Point: 28°   Wind: 6mph
Humidity: 100%   Direction: 30°NNE
Pressure: 29.53"   Gusts: NA
Location:  47.54°N, 101.22°W
Report Text: KHZE 221655Z AUTO 03005KT 1 1/4SM BR OVC003 M02/M02 A2953 RMK AO2
Loading
Personal Weather Stations






























Interactive Weather Map New forecast layout! Learn more

10-Day Weather Forecast

Advertisements
Track Severe Weather on mobile